Double-wide — WDH5819 — position and weather

sailwx.info

Track history (hours):
 
Tides and Currents Weather Stations Pressure Air Temp Water Temp Dewpoint Dewpoint Depression Visibility Wind Speed Wind Dir Waves Ship Positions

Double-wide

Owner: Clark Jr, Charles R, Naples, FL. More information available from US FCC via Universal Licensing System and Coast Guard Vessel Documentation Center.

Last reported at 2018-Apr-17 14:23 UTC. Time now 2018-Jun-18 23:19 UTC.
Position N 26°37' W 077°07'.
Warning: this ship's position is months out of date.

Length 12 m.

Type: Sailing vessel. MMSI: 367631780.

Date/timePositionNaut miles runAvg speedWind from/ knotsBaromVisibWave heightAir tempDewpointWater temp
2018-Apr-17 14:23N 26°37' W 077°07'2 5.9
2018-Apr-17 14:00N 26°35' W 077°06'3 5.8
2018-Apr-17 13:30N 26°33' W 077°04'0 0.0
2018-Apr-15 13:56N 26°33' W 077°03'1 1.9
2018-Apr-15 13:29N 26°34' W 077°04'3 5.6
2018-Apr-15 13:00N 26°34' W 077°01'3 0.1
2018-Apr-14 14:54N 26°33' W 076°58'2 5.2
2018-Apr-14 14:30N 26°34' W 076°60'3 5.5
2018-Apr-14 14:00N 26°34' W 077°03'1 2.1
2018-Apr-14 13:28N 26°33' W 077°03'  
2018-Apr-11 19:20N 26°33' W 077°03'1 2.5
2018-Apr-11 19:00N 26°34' W 077°04'3 5.1
2018-Apr-11 18:30N 26°34' W 077°01'2 3.9
2018-Apr-11 18:00N 26°33' W 076°59'2 3.3
2018-Apr-11 17:30N 26°32' W 076°58'2 0.0
2018-Apr-09 16:10N 26°30' W 076°59'0 0.2
2018-Apr-09 16:00N 26°30' W 076°59'2 3.9
2018-Apr-09 15:30N 26°32' W 076°58'1 1.4
2018-Apr-09 15:00N 26°32' W 076°58'0 0.7
2018-Apr-09 14:29N 26°33' W 076°58'0 0.0
2018-Apr-09 13:59N 26°33' W 076°58'  
Track history (hours):
 
Tides and Currents Weather Stations Pressure Air Temp Water Temp Dewpoint Dewpoint Depression Visibility Wind Speed Wind Dir Waves Ship Positions

Double-wide

Owner: Clark Jr, Charles R, Naples, FL. More information available from US FCC via Universal Licensing System and Coast Guard Vessel Documentation Center.

Last reported at 2018-Apr-17 14:23 UTC. Time now 2018-Jun-18 23:19 UTC.
Position N 26°37' W 077°07'.
Warning: this ship's position is months out of date.

Length 12 m.

Type: Sailing vessel. MMSI: 367631780.

Date/timePositionNaut miles runAvg speedWind from/ knotsBaromVisibWave heightAir tempDewpointWater temp
2018-Apr-17 14:23N 26°37' W 077°07'2 5.9
2018-Apr-17 14:00N 26°35' W 077°06'3 5.8
2018-Apr-17 13:30N 26°33' W 077°04'0 0.0
2018-Apr-15 13:56N 26°33' W 077°03'1 1.9
2018-Apr-15 13:29N 26°34' W 077°04'3 5.6
2018-Apr-15 13:00N 26°34' W 077°01'3 0.1
2018-Apr-14 14:54N 26°33' W 076°58'2 5.2
2018-Apr-14 14:30N 26°34' W 076°60'3 5.5
2018-Apr-14 14:00N 26°34' W 077°03'1 2.1
2018-Apr-14 13:28N 26°33' W 077°03'  
2018-Apr-11 19:20N 26°33' W 077°03'1 2.5
2018-Apr-11 19:00N 26°34' W 077°04'3 5.1
2018-Apr-11 18:30N 26°34' W 077°01'2 3.9
2018-Apr-11 18:00N 26°33' W 076°59'2 3.3
2018-Apr-11 17:30N 26°32' W 076°58'2 0.0
2018-Apr-09 16:10N 26°30' W 076°59'0 0.2
2018-Apr-09 16:00N 26°30' W 076°59'2 3.9
2018-Apr-09 15:30N 26°32' W 076°58'1 1.4
2018-Apr-09 15:00N 26°32' W 076°58'0 0.7
2018-Apr-09 14:29N 26°33' W 076°58'0 0.0
2018-Apr-09 13:59N 26°33' W 076°58'  

Dump ship's entire track history